sensor_id;sensor_type;location;lat;lon;timestamp;pressure;altitude;pressure_sealevel;temperature
64624;BMP280;51031;50.912;9.242;2022-07-23T00:00:01;99206.91;;;30.29
64624;BMP280;51031;50.912;9.242;2022-07-23T00:00:20;99199.63;;;30.29
64624;BMP280;51031;50.912;9.242;2022-07-23T00:00:36;99204.00;;;30.30
64624;BMP280;51031;50.912;9.242;2022-07-23T00:00:52;99202.13;;;30.31
64624;BMP280;51031;50.912;9.242;2022-07-23T00:01:07;99204.81;;;30.31
64624;BMP280;51031;50.912;9.242;2022-07-23T00:01:24;99199.41;;;30.31
64624;BMP280;51031;50.912;9.242;2022-07-23T00:01:40;99208.56;;;30.30
64624;BMP280;51031;50.912;9.242;2022-07-23T00:01:56;99203.16;;;30.30
64624;BMP280;51031;50.912;9.242;2022-07-23T00:02:12;99186.13;;;30.29
64624;BMP280;51031;50.912;9.242;2022-07-23T00:02:28;99189.88;;;30.28
64624;BMP280;51031;50.912;9.242;2022-07-23T00:02:44;99196.09;;;30.29
64624;BMP280;51031;50.912;9.242;2022-07-23T00:03:01;99191.31;;;30.31
64624;BMP280;51031;50.912;9.242;2022-07-23T00:03:17;99192.34;;;30.30
64624;BMP280;51031;50.912;9.242;2022-07-23T00:03:32;99192.34;;;30.30
64624;BMP280;51031;50.912;9.242;2022-07-23T00:03:48;99196.09;;;30.29
64624;BMP280;51031;50.912;9.242;2022-07-23T00:04:06;99192.34;;;30.30
64624;BMP280;51031;50.912;9.242;2022-07-23T00:04:21;99196.94;;;30.29
64624;BMP280;51031;50.912;9.242;2022-07-23T00:04:38;99196.09;;;30.29
64624;BMP280;51031;50.912;9.242;2022-07-23T00:04:54;99193.41;;;30.29
64624;BMP280;51031;50.912;9.242;2022-07-23T00:05:10;99196.09;;;30.29
64624;BMP280;51031;50.912;9.242;2022-07-23T00:05:26;99189.66;;;30.30
64624;BMP280;51031;50.912;9.242;2022-07-23T00:05:42;99186.94;;;30.30
64624;BMP280;51031;50.912;9.242;2022-07-23T00:05:59;99190.47;;;30.30
64624;BMP280;51031;50.912;9.242;2022-07-23T00:06:15;99193.19;;;30.30
64624;BMP280;51031;50.912;9.242;2022-07-23T00:06:30;99182.38;;;30.30
64624;BMP280;51031;50.912;9.242;2022-07-23T00:06:49;99183.19;;;30.31
64624;BMP280;51031;50.912;9.242;2022-07-23T00:07:04;99186.13;;;30.29
64624;BMP280;51031;50.912;9.242;2022-07-23T00:07:21;99172.38;;;30.31
64624;BMP280;51031;50.912;9.242;2022-07-23T00:07:37;99182.38;;;30.30
64624;BMP280;51031;50.912;9.242;2022-07-23T00:07:53;99186.13;;;30.29
64624;BMP280;51031;50.912;9.242;2022-07-23T00:08:09;99179.88;;;30.29
64624;BMP280;51031;50.912;9.242;2022-07-23T00:08:25;99185.28;;;30.29
64624;BMP280;51031;50.912;9.242;2022-07-23T00:08:42;99185.28;;;30.29
64624;BMP280;51031;50.912;9.242;2022-07-23T00:08:58;99182.59;;;30.29
64624;BMP280;51031;50.912;9.242;2022-07-23T00:09:13;99179.88;;;30.29
64624;BMP280;51031;50.912;9.242;2022-07-23T00:09:29;99178.00;;;30.29
64624;BMP280;51031;50.912;9.242;2022-07-23T00:09:46;99177.19;;;30.29
64624;BMP280;51031;50.912;9.242;2022-07-23T00:10:02;99183.41;;;30.29
64624;BMP280;51031;50.912;9.242;2022-07-23T00:10:19;99179.88;;;30.29
64624;BMP280;51031;50.912;9.242;2022-07-23T00:10:35;99185.28;;;30.29
64624;BMP280;51031;50.912;9.242;2022-07-23T00:10:51;99182.59;;;30.29
64624;BMP280;51031;50.912;9.242;2022-07-23T00:11:07;99187.16;;;30.28
64624;BMP280;51031;50.912;9.242;2022-07-23T00:11:23;99188.00;;;30.29
64624;BMP280;51031;50.912;9.242;2022-07-23T00:11:40;99180.88;;;30.28
64624;BMP280;51031;50.912;9.242;2022-07-23T00:11:55;99183.59;;;30.28
64624;BMP280;51031;50.912;9.242;2022-07-23T00:12:11;99185.28;;;30.29
64624;BMP280;51031;50.912;9.242;2022-07-23T00:12:27;99188.00;;;30.29
64624;BMP280;51031;50.912;9.242;2022-07-23T00:12:43;99180.88;;;30.28
64624;BMP280;51031;50.912;9.242;2022-07-23T00:13:00;99190.69;;;30.29
64624;BMP280;51031;50.912;9.242;2022-07-23T00:13:16;99183.59;;;30.28
64624;BMP280;51031;50.912;9.242;2022-07-23T00:13:31;99183.59;;;30.28
64624;BMP280;51031;50.912;9.242;2022-07-23T00:13:50;99181.94;;;30.27
64624;BMP280;51031;50.912;9.242;2022-07-23T00:14:08;99177.34;;;30.27
64624;BMP280;51031;50.912;9.242;2022-07-23T00:14:25;99181.94;;;30.27
64624;BMP280;51031;50.912;9.242;2022-07-23T00:14:43;99182.75;;;30.27
64624;BMP280;51031;50.912;9.242;2022-07-23T00:14:58;99186.31;;;30.28
64624;BMP280;51031;50.912;9.242;2022-07-23T00:15:14;99186.31;;;30.28
64624;BMP280;51031;50.912;9.242;2022-07-23T00:15:30;99177.34;;;30.27
64624;BMP280;51031;50.912;9.242;2022-07-23T00:15:46;99183.59;;;30.28
64624;BMP280;51031;50.912;9.242;2022-07-23T00:16:04;99183.59;;;30.28
64624;BMP280;51031;50.912;9.242;2022-07-23T00:16:19;99189.00;;;30.28
64624;BMP280;51031;50.912;9.242;2022-07-23T00:16:35;99178.19;;;30.28
64624;BMP280;51031;50.912;9.242;2022-07-23T00:16:51;99176.53;;;30.27
64624;BMP280;51031;50.912;9.242;2022-07-23T00:17:07;99175.69;;;30.26
64624;BMP280;51031;50.912;9.242;2022-07-23T00:17:23;99176.53;;;30.27
64624;BMP280;51031;50.912;9.242;2022-07-23T00:17:39;99179.22;;;30.27
64624;BMP280;51031;50.912;9.242;2022-07-23T00:17:55;99180.28;;;30.26
64624;BMP280;51031;50.912;9.242;2022-07-23T00:18:11;99180.28;;;30.26
64624;BMP280;51031;50.912;9.242;2022-07-23T00:18:27;99180.28;;;30.26
64624;BMP280;51031;50.912;9.242;2022-07-23T00:18:43;99179.22;;;30.27
64624;BMP280;51031;50.912;9.242;2022-07-23T00:19:00;99177.34;;;30.27
64624;BMP280;51031;50.912;9.242;2022-07-23T00:19:18;99179.22;;;30.27
64624;BMP280;51031;50.912;9.242;2022-07-23T00:19:34;99177.34;;;30.27
64624;BMP280;51031;50.912;9.242;2022-07-23T00:19:49;99176.53;;;30.27
64624;BMP280;51031;50.912;9.242;2022-07-23T00:20:06;99181.09;;;30.26
64624;BMP280;51031;50.912;9.242;2022-07-23T00:20:24;99181.94;;;30.27
64624;BMP280;51031;50.912;9.242;2022-07-23T00:20:39;99178.41;;;30.26
64624;BMP280;51031;50.912;9.242;2022-07-23T00:20:55;99181.94;;;30.27
64624;BMP280;51031;50.912;9.242;2022-07-23T00:21:11;99181.09;;;30.26
64624;BMP280;51031;50.912;9.242;2022-07-23T00:21:27;99180.88;;;30.28
64624;BMP280;51031;50.912;9.242;2022-07-23T00:21:43;99190.88;;;30.27
64624;BMP280;51031;50.912;9.242;2022-07-23T00:22:00;99183.59;;;30.28
64624;BMP280;51031;50.912;9.242;2022-07-23T00:22:16;99189.00;;;30.28
64624;BMP280;51031;50.912;9.242;2022-07-23T00:22:31;99185.47;;;30.27
64624;BMP280;51031;50.912;9.242;2022-07-23T00:22:47;99183.59;;;30.28
64624;BMP280;51031;50.912;9.242;2022-07-23T00:23:03;99189.00;;;30.28
64624;BMP280;51031;50.912;9.242;2022-07-23T00:23:19;99189.88;;;30.28
64624;BMP280;51031;50.912;9.242;2022-07-23T00:23:36;99194.41;;;30.28
64624;BMP280;51031;50.912;9.242;2022-07-23T00:23:52;99192.56;;;30.28
64624;BMP280;51031;50.912;9.242;2022-07-23T00:24:08;99190.88;;;30.27
64624;BMP280;51031;50.912;9.242;2022-07-23T00:24:24;99195.28;;;30.28
64624;BMP280;51031;50.912;9.242;2022-07-23T00:24:41;99190.69;;;30.29
64624;BMP280;51031;50.912;9.242;2022-07-23T00:24:57;99197.13;;;30.28
64624;BMP280;51031;50.912;9.242;2022-07-23T00:25:13;99191.72;;;30.28
64624;BMP280;51031;50.912;9.242;2022-07-23T00:25:29;99195.28;;;30.28
64624;BMP280;51031;50.912;9.242;2022-07-23T00:25:44;99193.41;;;30.29
64624;BMP280;51031;50.912;9.242;2022-07-23T00:26:00;99194.41;;;30.28
64624;BMP280;51031;50.912;9.242;2022-07-23T00:26:17;99184.47;;;30.28
64624;BMP280;51031;50.912;9.242;2022-07-23T00:26:33;99189.88;;;30.28
64624;BMP280;51031;50.912;9.242;2022-07-23T00:26:51;99189.00;;;30.28
64624;BMP280;51031;50.912;9.242;2022-07-23T00:27:07;99182.75;;;30.27
64624;BMP280;51031;50.912;9.242;2022-07-23T00:27:24;99188.19;;;30.27
64624;BMP280;51031;50.912;9.242;2022-07-23T00:27:40;99189.00;;;30.28
64624;BMP280;51031;50.912;9.242;2022-07-23T00:27:56;99188.19;;;30.27
64624;BMP280;51031;50.912;9.242;2022-07-23T00:28:11;99180.88;;;30.28
64624;BMP280;51031;50.912;9.242;2022-07-23T00:28:27;99179.22;;;30.27
64624;BMP280;51031;50.912;9.242;2022-07-23T00:28:43;99181.94;;;30.27
64624;BMP280;51031;50.912;9.242;2022-07-23T00:29:00;99179.22;;;30.27
64624;BMP280;51031;50.912;9.242;2022-07-23T00:29:16;99174.66;;;30.27
64624;BMP280;51031;50.912;9.242;2022-07-23T00:29:32;99167.38;;;30.28
64624;BMP280;51031;50.912;9.242;2022-07-23T00:29:48;99184.63;;;30.27
64624;BMP280;51031;50.912;9.242;2022-07-23T00:30:07;99177.34;;;30.27
64624;BMP280;51031;50.912;9.242;2022-07-23T00:30:28;99180.88;;;30.28
64624;BMP280;51031;50.912;9.242;2022-07-23T00:30:45;99181.75;;;30.28
64624;BMP280;51031;50.912;9.242;2022-07-23T00:31:01;99180.88;;;30.28
64624;BMP280;51031;50.912;9.242;2022-07-23T00:31:17;99183.59;;;30.28
64624;BMP280;51031;50.912;9.242;2022-07-23T00:31:34;99179.22;;;30.27
64624;BMP280;51031;50.912;9.242;2022-07-23T00:31:51;99181.09;;;30.26
64624;BMP280;51031;50.912;9.242;2022-07-23T00:32:06;99189.00;;;30.28
64624;BMP280;51031;50.912;9.242;2022-07-23T00:32:22;99182.75;;;30.27
64624;BMP280;51031;50.912;9.242;2022-07-23T00:32:45;99187.34;;;30.27
64624;BMP280;51031;50.912;9.242;2022-07-23T00:33:04;99187.34;;;30.27
64624;BMP280;51031;50.912;9.242;2022-07-23T00:33:21;99180.28;;;30.26
64624;BMP280;51031;50.912;9.242;2022-07-23T00:33:37;99179.22;;;30.27
64624;BMP280;51031;50.912;9.242;2022-07-23T00:33:53;99190.06;;;30.27
64624;BMP280;51031;50.912;9.242;2022-07-23T00:34:12;99183.81;;;30.26
64624;BMP280;51031;50.912;9.242;2022-07-23T00:34:29;99186.72;;;30.25
64624;BMP280;51031;50.912;9.242;2022-07-23T00:34:48;99188.38;;;30.26
64624;BMP280;51031;50.912;9.242;2022-07-23T00:35:04;99191.09;;;30.26
64624;BMP280;51031;50.912;9.242;2022-07-23T00:35:21;99182.34;;;30.24
64624;BMP280;51031;50.912;9.242;2022-07-23T00:35:38;99185.88;;;30.24
64624;BMP280;51031;50.912;9.242;2022-07-23T00:35:56;99187.56;;;30.25
64624;BMP280;51031;50.912;9.242;2022-07-23T00:36:13;99187.56;;;30.25
64624;BMP280;51031;50.912;9.242;2022-07-23T00:36:29;99180.28;;;30.26
64624;BMP280;51031;50.912;9.242;2022-07-23T00:36:46;99187.34;;;30.27
64624;BMP280;51031;50.912;9.242;2022-07-23T00:37:02;99185.69;;;30.26
64624;BMP280;51031;50.912;9.242;2022-07-23T00:37:18;99186.72;;;30.25
64624;BMP280;51031;50.912;9.242;2022-07-23T00:37:34;99181.31;;;30.25
64624;BMP280;51031;50.912;9.242;2022-07-23T00:37:50;99181.31;;;30.25
64624;BMP280;51031;50.912;9.242;2022-07-23T00:38:07;99175.91;;;30.25
64624;BMP280;51031;50.912;9.242;2022-07-23T00:38:23;99180.47;;;30.24
64624;BMP280;51031;50.912;9.242;2022-07-23T00:38:39;99177.75;;;30.24
64624;BMP280;51031;50.912;9.242;2022-07-23T00:38:55;99172.34;;;30.24
64624;BMP280;51031;50.912;9.242;2022-07-23T00:39:12;99169.66;;;30.24
64624;BMP280;51031;50.912;9.242;2022-07-23T00:39:28;99170.50;;;30.25
64624;BMP280;51031;50.912;9.242;2022-07-23T00:39:43;99159.69;;;30.25
64624;BMP280;51031;50.912;9.242;2022-07-23T00:39:59;99160.72;;;30.24
64624;BMP280;51031;50.912;9.242;2022-07-23T00:40:15;99155.31;;;30.24
64624;BMP280;51031;50.912;9.242;2022-07-23T00:40:31;99156.13;;;30.24
64624;BMP280;51031;50.912;9.242;2022-07-23T00:40:47;99152.59;;;30.24
64624;BMP280;51031;50.912;9.242;2022-07-23T00:41:04;99156.34;;;30.23
64624;BMP280;51031;50.912;9.242;2022-07-23T00:41:20;99158.00;;;30.24
64624;BMP280;51031;50.912;9.242;2022-07-23T00:41:36;99164.47;;;30.23
64624;BMP280;51031;50.912;9.242;2022-07-23T00:41:52;99149.28;;;30.22
64624;BMP280;51031;50.912;9.242;2022-07-23T00:42:08;99156.34;;;30.23
64624;BMP280;51031;50.912;9.242;2022-07-23T00:42:25;99151.16;;;30.21
64624;BMP280;51031;50.912;9.242;2022-07-23T00:42:40;99152.00;;;30.22
64624;BMP280;51031;50.912;9.242;2022-07-23T00:42:56;99157.41;;;30.22
64624;BMP280;51031;50.912;9.242;2022-07-23T00:43:12;99162.97;;;30.20
64624;BMP280;51031;50.912;9.242;2022-07-23T00:43:28;99151.34;;;30.20
64624;BMP280;51031;50.912;9.242;2022-07-23T00:43:44;99163.81;;;30.21
64624;BMP280;51031;50.912;9.242;2022-07-23T00:44:20;99153.00;;;30.21
64624;BMP280;51031;50.912;9.242;2022-07-23T00:44:36;99162.16;;;30.20
64624;BMP280;51031;50.912;9.242;2022-07-23T00:44:51;99159.44;;;30.20
64624;BMP280;51031;50.912;9.242;2022-07-23T00:45:08;99167.38;;;30.21
64624;BMP280;51031;50.912;9.242;2022-07-23T00:45:24;99170.09;;;30.21
64624;BMP280;51031;50.912;9.242;2022-07-23T00:45:41;99166.53;;;30.21
64624;BMP280;51031;50.912;9.242;2022-07-23T00:45:56;99175.50;;;30.21
64624;BMP280;51031;50.912;9.242;2022-07-23T00:46:12;99172.78;;;30.21
64624;BMP280;51031;50.912;9.242;2022-07-23T00:46:28;99169.22;;;30.21
64624;BMP280;51031;50.912;9.242;2022-07-23T00:46:48;99169.22;;;30.21
64624;BMP280;51031;50.912;9.242;2022-07-23T00:47:04;99173.63;;;30.22
64624;BMP280;51031;50.912;9.242;2022-07-23T00:47:21;99172.78;;;30.21
64624;BMP280;51031;50.912;9.242;2022-07-23T00:47:37;99180.69;;;30.23
64624;BMP280;51031;50.912;9.242;2022-07-23T00:47:53;99171.75;;;30.22
64624;BMP280;51031;50.912;9.242;2022-07-23T00:48:11;99175.28;;;30.23
64624;BMP280;51031;50.912;9.242;2022-07-23T00:48:27;99172.56;;;30.23
64624;BMP280;51031;50.912;9.242;2022-07-23T00:48:43;99175.28;;;30.23
64624;BMP280;51031;50.912;9.242;2022-07-23T00:49:02;99177.75;;;30.24
64624;BMP280;51031;50.912;9.242;2022-07-23T00:49:17;99179.63;;;30.24
64624;BMP280;51031;50.912;9.242;2022-07-23T00:49:35;99182.34;;;30.24
64624;BMP280;51031;50.912;9.242;2022-07-23T00:49:51;99176.94;;;30.24
64624;BMP280;51031;50.912;9.242;2022-07-23T00:50:09;99174.22;;;30.24
64624;BMP280;51031;50.912;9.242;2022-07-23T00:50:25;99181.31;;;30.25
64624;BMP280;51031;50.912;9.242;2022-07-23T00:50:42;99174.03;;;30.25
64624;BMP280;51031;50.912;9.242;2022-07-23T00:50:58;99174.88;;;30.26
64624;BMP280;51031;50.912;9.242;2022-07-23T00:51:14;99175.91;;;30.25
64624;BMP280;51031;50.912;9.242;2022-07-23T00:51:31;99183.81;;;30.26
64624;BMP280;51031;50.912;9.242;2022-07-23T00:51:48;99176.53;;;30.27
64624;BMP280;51031;50.912;9.242;2022-07-23T00:52:04;99173.81;;;30.27
64624;BMP280;51031;50.912;9.242;2022-07-23T00:52:21;99173.00;;;30.26
64624;BMP280;51031;50.912;9.242;2022-07-23T00:52:38;99178.41;;;30.26
64624;BMP280;51031;50.912;9.242;2022-07-23T00:52:55;99176.53;;;30.27
64624;BMP280;51031;50.912;9.242;2022-07-23T00:53:12;99181.09;;;30.26
64624;BMP280;51031;50.912;9.242;2022-07-23T00:53:28;99176.53;;;30.27
64624;BMP280;51031;50.912;9.242;2022-07-23T00:53:44;99176.53;;;30.27
64624;BMP280;51031;50.912;9.242;2022-07-23T00:54:00;99179.22;;;30.27
64624;BMP280;51031;50.912;9.242;2022-07-23T00:54:16;99171.13;;;30.27
64624;BMP280;51031;50.912;9.242;2022-07-23T00:54:33;99178.19;;;30.28
64624;BMP280;51031;50.912;9.242;2022-07-23T00:54:49;99171.94;;;30.27
64624;BMP280;51031;50.912;9.242;2022-07-23T00:55:07;99166.53;;;30.27
64624;BMP280;51031;50.912;9.242;2022-07-23T00:55:23;99173.81;;;30.27
64624;BMP280;51031;50.912;9.242;2022-07-23T00:55:39;99172.78;;;30.28
64624;BMP280;51031;50.912;9.242;2022-07-23T00:55:56;99167.38;;;30.28
64624;BMP280;51031;50.912;9.242;2022-07-23T00:56:14;99182.75;;;30.27
64624;BMP280;51031;50.912;9.242;2022-07-23T00:56:30;99176.53;;;30.27
64624;BMP280;51031;50.912;9.242;2022-07-23T00:56:46;99173.81;;;30.27
64624;BMP280;51031;50.912;9.242;2022-07-23T00:57:03;99179.22;;;30.27
64624;BMP280;51031;50.912;9.242;2022-07-23T00:57:19;99176.53;;;30.27
64624;BMP280;51031;50.912;9.242;2022-07-23T00:57:36;99171.94;;;30.27
64624;BMP280;51031;50.912;9.242;2022-07-23T00:57:52;99179.22;;;30.27
64624;BMP280;51031;50.912;9.242;2022-07-23T00:58:09;99180.06;;;30.27
64624;BMP280;51031;50.912;9.242;2022-07-23T00:58:25;99188.19;;;30.27
64624;BMP280;51031;50.912;9.242;2022-07-23T00:58:42;99186.31;;;30.28
64624;BMP280;51031;50.912;9.242;2022-07-23T00:58:59;99186.31;;;30.28
64624;BMP280;51031;50.912;9.242;2022-07-23T00:59:16;99178.19;;;30.28
64624;BMP280;51031;50.912;9.242;2022-07-23T00:59:33;99191.72;;;30.28
64624;BMP280;51031;50.912;9.242;2022-07-23T00:59:49;99182.75;;;30.27
64624;BMP280;51031;50.912;9.242;2022-07-23T01:00:06;99183.59;;;30.28
64624;BMP280;51031;50.912;9.242;2022-07-23T01:00:23;99185.69;;;30.26
64624;BMP280;51031;50.912;9.242;2022-07-23T01:00:39;99186.50;;;30.26
64624;BMP280;51031;50.912;9.242;2022-07-23T01:00:55;99182.97;;;30.26
64624;BMP280;51031;50.912;9.242;2022-07-23T01:01:12;99178.41;;;30.26
64624;BMP280;51031;50.912;9.242;2022-07-23T01:01:28;99177.34;;;30.27
64624;BMP280;51031;50.912;9.242;2022-07-23T01:01:44;99175.69;;;30.26
64624;BMP280;51031;50.912;9.242;2022-07-23T01:02:00;99177.34;;;30.27
64624;BMP280;51031;50.912;9.242;2022-07-23T01:02:16;99165.72;;;30.27
64624;BMP280;51031;50.912;9.242;2022-07-23T01:02:32;99162.19;;;30.26
64624;BMP280;51031;50.912;9.242;2022-07-23T01:02:49;99162.19;;;30.26
64624;BMP280;51031;50.912;9.242;2022-07-23T01:03:05;99164.06;;;30.26
64624;BMP280;51031;50.912;9.242;2022-07-23T01:03:21;99164.88;;;30.26
64624;BMP280;51031;50.912;9.242;2022-07-23T01:03:38;99154.06;;;30.26
64624;BMP280;51031;50.912;9.242;2022-07-23T01:03:54;99155.94;;;30.26
64624;BMP280;51031;50.912;9.242;2022-07-23T01:04:10;99153.25;;;30.26
64624;BMP280;51031;50.912;9.242;2022-07-23T01:04:26;99153.25;;;30.26
64624;BMP280;51031;50.912;9.242;2022-07-23T01:04:44;99153.25;;;30.26
64624;BMP280;51031;50.912;9.242;2022-07-23T01:05:00;99159.47;;;30.26
64624;BMP280;51031;50.912;9.242;2022-07-23T01:05:16;99161.34;;;30.26
64624;BMP280;51031;50.912;9.242;2022-07-23T01:05:33;99161.53;;;30.24
64624;BMP280;51031;50.912;9.242;2022-07-23T01:05:49;99158.84;;;30.24
64624;BMP280;51031;50.912;9.242;2022-07-23T01:06:05;99171.53;;;30.24
64624;BMP280;51031;50.912;9.242;2022-07-23T01:06:22;99174.22;;;30.24
64624;BMP280;51031;50.912;9.242;2022-07-23T01:06:38;99178.81;;;30.23
64624;BMP280;51031;50.912;9.242;2022-07-23T01:06:54;99181.50;;;30.23
64624;BMP280;51031;50.912;9.242;2022-07-23T01:07:10;99187.75;;;30.24
64624;BMP280;51031;50.912;9.242;2022-07-23T01:07:26;99196.91;;;30.23
64624;BMP280;51031;50.912;9.242;2022-07-23T01:07:43;99207.72;;;30.23
64624;BMP280;51031;50.912;9.242;2022-07-23T01:08:00;99203.97;;;30.24
64624;BMP280;51031;50.912;9.242;2022-07-23T01:08:16;99202.09;;;30.24
64624;BMP280;51031;50.912;9.242;2022-07-23T01:08:32;99203.97;;;30.24
64624;BMP280;51031;50.912;9.242;2022-07-23T01:08:48;99203.97;;;30.24
64624;BMP280;51031;50.912;9.242;2022-07-23T01:09:05;99201.25;;;30.24
64624;BMP280;51031;50.912;9.242;2022-07-23T01:09:22;99204.78;;;30.24
64624;BMP280;51031;50.912;9.242;2022-07-23T01:09:40;99208.34;;;30.25
64624;BMP280;51031;50.912;9.242;2022-07-23T01:09:56;99204.78;;;30.24
64624;BMP280;51031;50.912;9.242;2022-07-23T01:10:15;99205.84;;;30.23
64624;BMP280;51031;50.912;9.242;2022-07-23T01:10:46;99205.66;;;30.25
64624;BMP280;51031;50.912;9.242;2022-07-23T01:11:03;99210.03;;;30.26
64624;BMP280;51031;50.912;9.242;2022-07-23T01:11:20;99205.66;;;30.25
64624;BMP280;51031;50.912;9.242;2022-07-23T01:11:37;99205.66;;;30.25
64624;BMP280;51031;50.912;9.242;2022-07-23T01:11:56;99201.91;;;30.26
64624;BMP280;51031;50.912;9.242;2022-07-23T01:12:12;99210.84;;;30.26
64624;BMP280;51031;50.912;9.242;2022-07-23T01:12:28;99200.88;;;30.27
64624;BMP280;51031;50.912;9.242;2022-07-23T01:12:45;99200.88;;;30.27
64624;BMP280;51031;50.912;9.242;2022-07-23T01:13:03;99197.13;;;30.28
64624;BMP280;51031;50.912;9.242;2022-07-23T01:13:19;99195.47;;;30.27
64624;BMP280;51031;50.912;9.242;2022-07-23T01:13:35;99188.19;;;30.27
64624;BMP280;51031;50.912;9.242;2022-07-23T01:13:51;99190.06;;;30.27
64624;BMP280;51031;50.912;9.242;2022-07-23T01:14:10;99181.94;;;30.27
64624;BMP280;51031;50.912;9.242;2022-07-23T01:14:27;99183.81;;;30.26
64624;BMP280;51031;50.912;9.242;2022-07-23T01:14:43;99189.00;;;30.28
64624;BMP280;51031;50.912;9.242;2022-07-23T01:15:00;99187.34;;;30.27
64624;BMP280;51031;50.912;9.242;2022-07-23T01:15:19;99177.56;;;30.26
64624;BMP280;51031;50.912;9.242;2022-07-23T01:15:36;99182.97;;;30.26
64624;BMP280;51031;50.912;9.242;2022-07-23T01:15:52;99184.84;;;30.25
64624;BMP280;51031;50.912;9.242;2022-07-23T01:16:09;99191.09;;;30.26
64624;BMP280;51031;50.912;9.242;2022-07-23T01:16:25;99180.28;;;30.26
64624;BMP280;51031;50.912;9.242;2022-07-23T01:16:42;99187.56;;;30.25
64624;BMP280;51031;50.912;9.242;2022-07-23T01:16:58;99184.03;;;30.25
64624;BMP280;51031;50.912;9.242;2022-07-23T01:17:14;99180.28;;;30.26
64624;BMP280;51031;50.912;9.242;2022-07-23T01:17:30;99191.94;;;30.26
64624;BMP280;51031;50.912;9.242;2022-07-23T01:17:46;99190.25;;;30.25
64624;BMP280;51031;50.912;9.242;2022-07-23T01:18:04;99182.97;;;30.26
64624;BMP280;51031;50.912;9.242;2022-07-23T01:18:20;99186.50;;;30.26
64624;BMP280;51031;50.912;9.242;2022-07-23T01:18:38;99185.69;;;30.26
64624;BMP280;51031;50.912;9.242;2022-07-23T01:18:54;99182.16;;;30.25
64624;BMP280;51031;50.912;9.242;2022-07-23T01:19:12;99191.09;;;30.26
64624;BMP280;51031;50.912;9.242;2022-07-23T01:19:30;99180.28;;;30.26
64624;BMP280;51031;50.912;9.242;2022-07-23T01:19:48;99184.84;;;30.25
64624;BMP280;51031;50.912;9.242;2022-07-23T01:20:05;99186.72;;;30.25
64624;BMP280;51031;50.912;9.242;2022-07-23T01:20:21;99182.16;;;30.25
64624;BMP280;51031;50.912;9.242;2022-07-23T01:20:37;99184.03;;;30.25
64624;BMP280;51031;50.912;9.242;2022-07-23T01:20:57;99193.16;;;30.24
64624;BMP280;51031;50.912;9.242;2022-07-23T01:21:13;99187.75;;;30.24
64624;BMP280;51031;50.912;9.242;2022-07-23T01:21:29;99184.22;;;30.23
64624;BMP280;51031;50.912;9.242;2022-07-23T01:21:47;99187.75;;;30.24
64624;BMP280;51031;50.912;9.242;2022-07-23T01:22:04;99182.34;;;30.24
64624;BMP280;51031;50.912;9.242;2022-07-23T01:22:20;99182.34;;;30.24
64624;BMP280;51031;50.912;9.242;2022-07-23T01:22:37;99190.44;;;30.24
64624;BMP280;51031;50.912;9.242;2022-07-23T01:22:55;99178.81;;;30.23
64624;BMP280;51031;50.912;9.242;2022-07-23T01:23:11;99180.69;;;30.23
64624;BMP280;51031;50.912;9.242;2022-07-23T01:23:32;99187.75;;;30.24
64624;BMP280;51031;50.912;9.242;2022-07-23T01:23:48;99189.63;;;30.23
64624;BMP280;51031;50.912;9.242;2022-07-23T01:24:06;99183.38;;;30.23
64624;BMP280;51031;50.912;9.242;2022-07-23T01:24:25;99188.78;;;30.23
64624;BMP280;51031;50.912;9.242;2022-07-23T01:24:48;99183.38;;;30.23
64624;BMP280;51031;50.912;9.242;2022-07-23T01:25:08;99179.63;;;30.24
64624;BMP280;51031;50.912;9.242;2022-07-23T01:25:25;99179.63;;;30.24
64624;BMP280;51031;50.912;9.242;2022-07-23T01:25:48;99182.34;;;30.24
64624;BMP280;51031;50.912;9.242;2022-07-23T01:26:07;99190.44;;;30.24
64624;BMP280;51031;50.912;9.242;2022-07-23T01:26:23;99179.63;;;30.24
64624;BMP280;51031;50.912;9.242;2022-07-23T01:26:41;99180.47;;;30.24
64624;BMP280;51031;50.912;9.242;2022-07-23T01:26:57;99179.63;;;30.24
64624;BMP280;51031;50.912;9.242;2022-07-23T01:27:13;99175.91;;;30.25
64624;BMP280;51031;50.912;9.242;2022-07-23T01:27:34;99172.34;;;30.24
64624;BMP280;51031;50.912;9.242;2022-07-23T01:27:53;99178.63;;;30.25
64624;BMP280;51031;50.912;9.242;2022-07-23T01:28:09;99182.34;;;30.24
64624;BMP280;51031;50.912;9.242;2022-07-23T01:28:25;99171.53;;;30.24
64624;BMP280;51031;50.912;9.242;2022-07-23T01:28:41;99171.53;;;30.24
64624;BMP280;51031;50.912;9.242;2022-07-23T01:28:58;99171.53;;;30.24
64624;BMP280;51031;50.912;9.242;2022-07-23T01:29:15;99169.88;;;30.23
64624;BMP280;51031;50.912;9.242;2022-07-23T01:29:31;99160.72;;;30.24
64624;BMP280;51031;50.912;9.242;2022-07-23T01:29:52;99170.69;;;30.23
64624;BMP280;51031;50.912;9.242;2022-07-23T01:30:11;99174.22;;;30.24
64624;BMP280;51031;50.912;9.242;2022-07-23T01:30:28;99165.50;;;30.22
64624;BMP280;51031;50.912;9.242;2022-07-23T01:30:45;99170.91;;;30.22
64624;BMP280;51031;50.912;9.242;2022-07-23T01:31:02;99167.38;;;30.21
64624;BMP280;51031;50.912;9.242;2022-07-23T01:31:22;99162.81;;;30.22
64624;BMP280;51031;50.912;9.242;2022-07-23T01:31:38;99168.22;;;30.22
64624;BMP280;51031;50.912;9.242;2022-07-23T01:31:55;99166.53;;;30.21
64624;BMP280;51031;50.912;9.242;2022-07-23T01:32:11;99154.03;;;30.20
64624;BMP280;51031;50.912;9.242;2022-07-23T01:32:27;99164.84;;;30.20
64624;BMP280;51031;50.912;9.242;2022-07-23T01:32:43;99163.19;;;30.19
64624;BMP280;51031;50.912;9.242;2022-07-23T01:32:59;99153.22;;;30.19
64624;BMP280;51031;50.912;9.242;2022-07-23T01:33:16;99160.50;;;30.19
64624;BMP280;51031;50.912;9.242;2022-07-23T01:33:32;99156.97;;;30.18
64624;BMP280;51031;50.912;9.242;2022-07-23T01:33:48;99160.50;;;30.19
64624;BMP280;51031;50.912;9.242;2022-07-23T01:34:04;99150.72;;;30.18
64624;BMP280;51031;50.912;9.242;2022-07-23T01:34:22;99149.69;;;30.19
64624;BMP280;51031;50.912;9.242;2022-07-23T01:34:39;99156.13;;;30.18
64624;BMP280;51031;50.912;9.242;2022-07-23T01:34:56;99158.84;;;30.18
64624;BMP280;51031;50.912;9.242;2022-07-23T01:35:12;99150.72;;;30.18
64624;BMP280;51031;50.912;9.242;2022-07-23T01:35:28;99150.72;;;30.18
64624;BMP280;51031;50.912;9.242;2022-07-23T01:35:47;99156.97;;;30.18
64624;BMP280;51031;50.912;9.242;2022-07-23T01:36:09;99149.88;;;30.17
64624;BMP280;51031;50.912;9.242;2022-07-23T01:36:25;99157.97;;;30.17